createdAt,value
2022-12-01T00:00:46.888Z,3.19
2022-12-01T00:03:31.565Z,3.12
2022-12-01T00:06:16.548Z,3.12
2022-12-01T00:09:01.271Z,3.13
2022-12-01T00:11:46.137Z,3.16
2022-12-01T00:14:30.803Z,3.15
2022-12-01T00:17:15.504Z,3.13
2022-12-01T00:20:00.169Z,3.13
2022-12-01T00:22:44.875Z,3.15
2022-12-01T00:25:29.624Z,3.12
2022-12-01T00:28:14.392Z,3.12
2022-12-01T00:30:59.257Z,3.14
2022-12-01T00:33:43.936Z,3.17
2022-12-01T00:36:28.776Z,3.15
2022-12-01T00:39:13.441Z,3.16
2022-12-01T00:41:58.221Z,3.10
2022-12-01T00:44:42.753Z,3.19
2022-12-01T00:47:27.630Z,3.26
2022-12-01T00:50:12.419Z,3.27
2022-12-01T00:52:57.164Z,3.12
2022-12-01T00:55:41.879Z,3.00
2022-12-01T00:58:26.490Z,2.91
2022-12-01T01:01:11.348Z,2.93
2022-12-01T01:03:55.982Z,2.90
2022-12-01T01:06:40.813Z,2.86
2022-12-01T01:09:25.496Z,2.83
2022-12-01T01:12:11.493Z,2.86
2022-12-01T01:14:56.394Z,2.94
2022-12-01T01:17:41.044Z,3.01
2022-12-01T01:20:25.747Z,3.01
2022-12-01T01:23:10.402Z,2.92
2022-12-01T01:25:55.033Z,2.92
2022-12-01T01:28:39.819Z,2.83
2022-12-01T01:31:24.703Z,2.80
2022-12-01T01:34:09.391Z,2.82
2022-12-01T01:36:54.250Z,2.91
2022-12-01T01:39:39.040Z,2.92
2022-12-01T01:42:23.829Z,2.99
2022-12-01T01:45:08.570Z,3.01
2022-12-01T01:47:53.384Z,3.08
2022-12-01T01:50:38.190Z,3.07
2022-12-01T01:53:23.073Z,3.14
2022-12-01T01:56:07.749Z,3.20
2022-12-01T01:58:52.491Z,3.17
2022-12-01T02:01:37.410Z,3.14
2022-12-01T02:04:21.988Z,3.15
2022-12-01T02:07:06.952Z,3.12
2022-12-01T02:09:51.773Z,3.14
2022-12-01T02:12:36.973Z,3.14
2022-12-01T02:15:21.740Z,3.09
2022-12-01T02:18:06.623Z,3.04
2022-12-01T02:20:51.453Z,3.03
2022-12-01T02:23:36.155Z,2.99
2022-12-01T02:26:20.906Z,3.04
2022-12-01T02:29:05.607Z,3.00
2022-12-01T02:31:50.395Z,2.97
2022-12-01T02:34:35.058Z,2.95
2022-12-01T02:37:19.850Z,2.92
2022-12-01T02:40:04.573Z,2.86
2022-12-01T02:42:49.359Z,2.89
2022-12-01T02:45:34.023Z,2.86
2022-12-01T02:48:18.766Z,2.81
2022-12-01T02:51:03.590Z,2.78
2022-12-01T02:53:48.239Z,2.73
2022-12-01T02:56:33.002Z,2.64
2022-12-01T02:59:17.828Z,2.55
2022-12-01T03:02:02.653Z,2.43
2022-12-01T03:04:47.447Z,2.31
2022-12-01T03:07:32.273Z,2.39
2022-12-01T03:10:17.023Z,2.42
2022-12-01T03:13:01.993Z,2.38
2022-12-01T03:15:46.756Z,2.33
2022-12-01T03:18:31.523Z,2.24
2022-12-01T03:21:16.494Z,2.36
2022-12-01T03:24:01.222Z,2.39
2022-12-01T03:26:46.193Z,2.36
2022-12-01T03:29:30.875Z,2.29
2022-12-01T03:32:15.718Z,2.22
2022-12-01T03:35:00.435Z,2.24
2022-12-01T03:37:45.163Z,2.28
2022-12-01T03:40:29.836Z,2.32
2022-12-01T03:43:14.739Z,2.34
2022-12-01T03:45:59.565Z,2.34
2022-12-01T03:48:44.079Z,2.42
2022-12-01T03:51:28.972Z,2.46
2022-12-01T03:54:13.692Z,2.49
2022-12-01T03:56:58.576Z,2.42
2022-12-01T03:59:43.122Z,2.29
2022-12-01T04:02:27.931Z,2.23
2022-12-01T04:05:13.090Z,2.22
2022-12-01T04:07:57.997Z,2.33
2022-12-01T04:10:43.166Z,2.34
2022-12-01T04:13:27.873Z,2.44
2022-12-01T04:16:12.664Z,2.40
2022-12-01T04:18:57.328Z,2.32
2022-12-01T04:21:42.198Z,2.24
2022-12-01T04:24:26.912Z,2.14
2022-12-01T04:27:11.741Z,2.21
2022-12-01T04:29:56.334Z,2.32
2022-12-01T04:32:41.204Z,2.33
2022-12-01T04:35:25.739Z,2.40
2022-12-01T04:38:10.440Z,2.36
2022-12-01T04:40:55.182Z,2.28
2022-12-01T04:43:40.051Z,2.23
2022-12-01T04:46:25.049Z,2.26
2022-12-01T04:49:10.210Z,2.26
2022-12-01T04:51:54.992Z,2.21
2022-12-01T04:54:39.749Z,2.21
2022-12-01T04:57:24.602Z,2.21
2022-12-01T05:00:09.171Z,2.23
2022-12-01T05:02:53.952Z,2.17
2022-12-01T05:05:38.684Z,2.20
2022-12-01T05:08:23.360Z,2.28
2022-12-01T05:11:08.026Z,2.28
2022-12-01T05:13:52.759Z,2.22
2022-12-01T05:16:37.736Z,2.19
2022-12-01T05:19:22.891Z,2.11
2022-12-01T05:22:07.763Z,2.03
2022-12-01T05:24:52.487Z,1.94
2022-12-01T05:27:37.173Z,1.94
2022-12-01T05:30:25.641Z,1.92
2022-12-01T05:33:13.098Z,1.93
2022-12-01T05:35:58.047Z,1.98
2022-12-01T05:38:42.826Z,2.00
2022-12-01T05:41:27.567Z,1.99
2022-12-01T05:44:12.324Z,2.02
2022-12-01T05:46:57.291Z,2.06
2022-12-01T05:49:42.050Z,2.09
2022-12-01T05:52:26.757Z,2.13
2022-12-01T05:55:11.690Z,2.18
2022-12-01T05:57:56.362Z,2.17
2022-12-01T06:00:45.743Z,2.17
2022-12-01T06:03:30.952Z,2.21
2022-12-01T06:06:15.676Z,2.27
2022-12-01T06:09:00.536Z,2.29
2022-12-01T06:11:48.011Z,2.28
2022-12-01T06:14:35.115Z,2.24
2022-12-01T06:17:19.952Z,2.30
2022-12-01T06:20:04.714Z,2.31
2022-12-01T06:22:49.523Z,2.32
2022-12-01T06:25:34.329Z,2.40
2022-12-01T06:28:19.179Z,2.37
2022-12-01T06:31:03.981Z,2.33
2022-12-01T06:33:48.722Z,2.31
2022-12-01T06:36:33.399Z,2.27
2022-12-01T06:39:18.223Z,2.26
2022-12-01T06:42:03.022Z,2.25
2022-12-01T06:44:47.811Z,2.25
2022-12-01T06:47:32.636Z,2.17
2022-12-01T06:50:17.367Z,2.11
2022-12-01T06:53:02.274Z,2.06
2022-12-01T06:55:46.964Z,2.00
2022-12-01T06:58:32.400Z,2.03
2022-12-01T07:01:17.595Z,2.09
2022-12-01T07:04:02.501Z,2.18
2022-12-01T07:06:47.227Z,2.25
2022-12-01T07:09:31.897Z,2.28
2022-12-01T07:12:16.702Z,2.30
2022-12-01T07:15:01.535Z,2.31
2022-12-01T07:17:46.260Z,2.33
2022-12-01T07:20:31.082Z,2.39
2022-12-01T07:23:15.811Z,2.44
2022-12-01T07:26:00.477Z,2.47
2022-12-01T07:28:45.343Z,2.52
2022-12-01T07:31:30.081Z,2.60
2022-12-01T07:34:15.254Z,2.64
2022-12-01T07:37:00.096Z,2.68
2022-12-01T07:39:44.800Z,2.70
2022-12-01T07:42:29.655Z,2.75
2022-12-01T07:45:14.263Z,2.79
2022-12-01T07:47:59.023Z,2.81
2022-12-01T07:50:43.760Z,2.88
2022-12-01T07:53:28.674Z,2.88
2022-12-01T07:56:13.383Z,2.92
2022-12-01T07:58:58.174Z,2.95
2022-12-01T08:01:44.689Z,2.96
2022-12-01T08:04:29.709Z,2.95
2022-12-01T08:07:14.553Z,3.00
2022-12-01T08:09:59.251Z,3.03
2022-12-01T08:12:44.039Z,3.08
2022-12-01T08:15:28.801Z,3.11
2022-12-01T08:18:13.479Z,3.13
2022-12-01T08:20:58.163Z,3.16
2022-12-01T08:23:43.060Z,3.22
2022-12-01T08:26:27.876Z,3.27
2022-12-01T08:29:17.044Z,3.31
2022-12-01T08:32:04.971Z,3.36
2022-12-01T08:34:53.514Z,3.39
2022-12-01T08:37:38.443Z,3.42
2022-12-01T08:40:23.103Z,3.47
2022-12-01T08:43:07.876Z,3.38
2022-12-01T08:45:52.691Z,3.24
2022-12-01T08:48:37.395Z,3.19
2022-12-01T08:51:22.003Z,3.28
2022-12-01T08:54:06.812Z,3.35
2022-12-01T08:56:51.436Z,3.40
2022-12-01T08:59:36.276Z,3.50
2022-12-01T09:02:21.080Z,3.64
2022-12-01T09:05:05.853Z,3.77
2022-12-01T09:07:50.504Z,3.91
2022-12-01T09:10:35.254Z,4.07
2022-12-01T09:13:20.217Z,4.20
2022-12-01T09:16:04.994Z,4.37
2022-12-01T09:18:49.760Z,4.53
2022-12-01T09:21:34.399Z,4.62
2022-12-01T09:24:19.362Z,4.79
2022-12-01T09:27:04.023Z,4.84
2022-12-01T09:29:48.829Z,4.86
2022-12-01T09:32:33.801Z,4.88
2022-12-01T09:35:23.115Z,4.83
2022-12-01T09:38:08.218Z,4.88
2022-12-01T09:40:52.920Z,4.88
2022-12-01T09:43:37.523Z,4.80
2022-12-01T09:46:22.436Z,4.48
2022-12-01T09:49:07.257Z,4.36
2022-12-01T09:51:52.181Z,4.33
2022-12-01T09:54:37.004Z,4.28
2022-12-01T09:57:21.856Z,4.35
2022-12-01T10:00:06.426Z,4.62
2022-12-01T10:02:51.257Z,4.82
2022-12-01T10:05:35.876Z,4.92
2022-12-01T10:08:26.682Z,5.05
2022-12-01T10:11:11.963Z,5.02
2022-12-01T10:13:56.659Z,4.88
2022-12-01T10:16:41.581Z,4.92
2022-12-01T10:19:26.698Z,5.18
2022-12-01T10:22:11.538Z,5.42
2022-12-01T10:24:56.264Z,5.83
2022-12-01T10:27:41.523Z,6.11
2022-12-01T10:30:26.287Z,6.39
2022-12-01T10:33:11.017Z,6.60
2022-12-01T10:35:55.822Z,6.79
2022-12-01T10:38:40.663Z,6.61
2022-12-01T10:41:25.446Z,6.05
2022-12-01T10:44:10.211Z,5.81
2022-12-01T10:46:54.933Z,5.35
2022-12-01T10:49:39.770Z,5.09
2022-12-01T10:52:24.506Z,4.86
2022-12-01T10:55:09.250Z,4.74
2022-12-01T10:57:54.009Z,4.79
2022-12-01T11:03:43.628Z,4.59
2022-12-01T11:06:28.506Z,4.40
2022-12-01T11:09:13.234Z,4.34
2022-12-01T11:11:58.005Z,4.26
2022-12-01T11:14:42.862Z,4.37
2022-12-01T11:17:27.388Z,4.33
2022-12-01T11:20:12.345Z,4.31
2022-12-01T11:22:57.480Z,4.15
2022-12-01T11:25:42.321Z,4.38
2022-12-01T11:28:27.078Z,4.37
2022-12-01T11:31:11.768Z,4.43
2022-12-01T11:33:56.486Z,4.66
2022-12-01T11:36:41.297Z,4.74
2022-12-01T11:39:25.924Z,4.77
2022-12-01T11:42:10.765Z,4.83
2022-12-01T11:44:55.587Z,4.76
2022-12-01T11:47:40.242Z,4.75
2022-12-01T11:50:25.132Z,4.73
2022-12-01T11:53:09.794Z,4.58
2022-12-01T11:55:55.533Z,4.41
2022-12-01T11:58:40.430Z,4.18
2022-12-01T12:01:25.094Z,4.06
2022-12-01T12:04:09.845Z,3.96
2022-12-01T12:06:54.778Z,4.06
2022-12-01T12:09:44.933Z,3.97
2022-12-01T12:12:30.554Z,3.97
2022-12-01T12:15:15.463Z,3.84
2022-12-01T12:18:00.317Z,3.93
2022-12-01T12:20:45.051Z,3.83
2022-12-01T12:23:29.748Z,3.80
2022-12-01T12:26:14.515Z,3.81
2022-12-01T12:28:59.350Z,3.64
2022-12-01T12:31:43.926Z,3.79
2022-12-01T12:34:28.641Z,3.86
2022-12-01T12:37:13.343Z,3.87
2022-12-01T12:39:58.136Z,3.86
2022-12-01T12:42:42.966Z,3.85
2022-12-01T12:45:27.663Z,3.82
2022-12-01T12:48:12.472Z,3.86
2022-12-01T12:50:57.259Z,3.96
2022-12-01T12:53:42.068Z,4.11
2022-12-01T12:56:26.872Z,4.17
2022-12-01T12:59:11.878Z,4.25
2022-12-01T13:01:56.601Z,4.52
2022-12-01T13:04:41.331Z,4.62
2022-12-01T13:07:26.149Z,4.75
2022-12-01T13:10:11.164Z,4.86
2022-12-01T13:12:56.073Z,4.88
2022-12-01T13:15:40.933Z,4.87
2022-12-01T13:18:25.629Z,4.83
2022-12-01T13:21:10.403Z,4.92
2022-12-01T13:23:55.145Z,4.95
2022-12-01T13:26:39.832Z,5.08
2022-12-01T13:29:24.595Z,5.08
2022-12-01T13:32:09.307Z,5.04
2022-12-01T13:34:54.199Z,5.00
2022-12-01T13:37:38.841Z,5.03
2022-12-01T13:40:23.689Z,5.09
2022-12-01T13:43:10.946Z,5.20
2022-12-01T13:45:55.809Z,5.28
2022-12-01T13:48:40.627Z,5.35
2022-12-01T13:51:25.367Z,5.30
2022-12-01T13:54:10.171Z,5.20
2022-12-01T13:56:54.836Z,5.14
2022-12-01T13:59:39.607Z,5.05
2022-12-01T14:02:24.494Z,4.87
2022-12-01T14:05:09.752Z,4.72
2022-12-01T14:07:54.670Z,4.56
2022-12-01T14:10:39.603Z,4.52
2022-12-01T14:13:24.495Z,4.49
2022-12-01T14:16:09.153Z,4.39
2022-12-01T14:18:54.407Z,4.32
2022-12-01T14:21:39.063Z,4.32
2022-12-01T14:24:23.838Z,4.28
2022-12-01T14:27:08.804Z,4.25
2022-12-01T14:29:53.862Z,4.27
2022-12-01T14:32:38.689Z,4.24
2022-12-01T14:35:23.289Z,4.17
2022-12-01T14:38:08.015Z,4.08
2022-12-01T14:40:52.656Z,3.99
2022-12-01T14:43:37.554Z,3.89
2022-12-01T14:46:22.140Z,3.81
2022-12-01T14:49:06.774Z,3.80
2022-12-01T14:51:51.414Z,3.73
2022-12-01T14:54:36.182Z,3.73
2022-12-01T14:57:20.900Z,3.72
2022-12-01T15:00:05.748Z,3.69
2022-12-01T15:02:50.575Z,3.59
2022-12-01T15:05:35.500Z,3.54
2022-12-01T15:08:40.926Z,3.48
2022-12-01T15:11:25.063Z,3.44
2022-12-01T15:14:09.762Z,3.38
2022-12-01T15:16:54.625Z,3.34
2022-12-01T15:19:39.641Z,3.24
2022-12-01T15:22:24.649Z,3.17
2022-12-01T15:25:09.287Z,3.26
2022-12-01T15:27:54.080Z,3.27
2022-12-01T15:30:38.737Z,3.40
2022-12-01T15:33:27.295Z,3.37
2022-12-01T15:36:13.225Z,3.46
2022-12-01T15:39:03.596Z,3.48
2022-12-01T15:41:51.667Z,3.54
2022-12-01T15:44:36.467Z,3.53
2022-12-01T15:47:21.331Z,3.49
2022-12-01T15:50:06.116Z,3.37
2022-12-01T15:52:50.880Z,3.28
2022-12-01T15:55:35.650Z,3.20
2022-12-01T15:58:20.358Z,3.16
2022-12-01T16:01:05.151Z,3.18
2022-12-01T16:03:49.892Z,3.13
2022-12-01T16:06:34.549Z,3.06
2022-12-01T16:09:19.379Z,3.07
2022-12-01T16:12:04.152Z,3.06
2022-12-01T16:14:49.345Z,2.99
2022-12-01T16:17:34.995Z,2.98
2022-12-01T16:20:19.781Z,2.89
2022-12-01T16:23:04.565Z,2.85
2022-12-01T16:25:49.320Z,2.83
2022-12-01T16:28:34.147Z,2.88
2022-12-01T16:31:18.867Z,2.82
2022-12-01T16:34:13.765Z,2.78
2022-12-01T16:37:03.491Z,2.79
2022-12-01T16:39:48.254Z,2.86
2022-12-01T16:42:32.977Z,2.82
2022-12-01T16:45:17.730Z,2.79
2022-12-01T16:48:09.034Z,2.78
2022-12-01T16:50:54.435Z,2.76
2022-12-01T16:53:39.014Z,2.73
2022-12-01T16:56:23.873Z,2.84
2022-12-01T16:59:08.643Z,2.83
2022-12-01T17:01:53.521Z,2.88
2022-12-01T17:04:38.178Z,2.85
2022-12-01T17:07:23.087Z,2.85
2022-12-01T17:10:07.726Z,2.80
2022-12-01T17:12:52.610Z,2.68
2022-12-01T17:15:37.333Z,2.72
2022-12-01T17:18:22.011Z,2.71
2022-12-01T17:21:06.731Z,2.76
2022-12-01T17:23:51.632Z,2.75
2022-12-01T17:26:36.529Z,2.74
2022-12-01T17:29:21.203Z,2.69
2022-12-01T17:32:06.030Z,2.65
2022-12-01T17:34:50.963Z,2.55
2022-12-01T17:37:36.129Z,2.43
2022-12-01T17:40:20.783Z,2.37
2022-12-01T17:43:05.671Z,2.30
2022-12-01T17:45:50.277Z,2.41
2022-12-01T17:48:35.165Z,2.35
2022-12-01T17:51:20.047Z,2.21
2022-12-01T17:54:04.894Z,2.25
2022-12-01T17:56:49.662Z,2.22
2022-12-01T17:59:34.310Z,2.25
2022-12-01T18:02:19.248Z,2.34
2022-12-01T18:05:04.287Z,2.44
2022-12-01T18:07:49.101Z,2.46
2022-12-01T18:10:33.827Z,2.50
2022-12-01T18:13:21.223Z,2.49
2022-12-01T18:16:06.694Z,2.49
2022-12-01T18:18:51.565Z,2.56
2022-12-01T18:21:36.325Z,2.51
2022-12-01T18:24:21.059Z,2.59
2022-12-01T18:27:05.853Z,2.76
2022-12-01T18:29:50.483Z,2.82
2022-12-01T18:32:35.140Z,2.82
2022-12-01T18:35:19.890Z,2.82
2022-12-01T18:38:04.731Z,2.86
2022-12-01T18:40:49.556Z,2.80
2022-12-01T18:43:34.304Z,2.80
2022-12-01T18:46:19.289Z,2.87
2022-12-01T18:49:04.074Z,2.83
2022-12-01T18:51:48.899Z,2.83
2022-12-01T18:54:33.710Z,2.82
2022-12-01T18:57:18.486Z,2.78
2022-12-01T19:00:03.074Z,2.81
2022-12-01T19:02:47.861Z,2.85
2022-12-01T19:05:32.607Z,2.87
2022-12-01T19:08:17.346Z,2.92
2022-12-01T19:11:02.584Z,3.00
2022-12-01T19:13:47.425Z,3.01
2022-12-01T19:16:32.316Z,2.98
2022-12-01T19:19:17.463Z,2.94
2022-12-01T19:22:02.366Z,2.93
2022-12-01T19:24:50.226Z,2.94
2022-12-01T19:27:35.303Z,2.94
2022-12-01T19:30:20.162Z,2.91
2022-12-01T19:33:04.745Z,2.89
2022-12-01T19:35:49.459Z,2.91
2022-12-01T19:38:34.075Z,2.85
2022-12-01T19:41:19.403Z,2.87
2022-12-01T19:44:04.103Z,2.90
2022-12-01T19:46:49.114Z,2.94
2022-12-01T19:49:33.745Z,2.87
2022-12-01T19:52:18.512Z,2.82
2022-12-01T19:55:03.235Z,2.83
2022-12-01T19:57:47.914Z,2.90
2022-12-01T20:00:32.720Z,2.79
2022-12-01T20:03:17.426Z,2.77
2022-12-01T20:06:02.202Z,2.74
2022-12-01T20:08:46.884Z,2.73
2022-12-01T20:11:31.800Z,2.68
2022-12-01T20:14:16.563Z,2.66
2022-12-01T20:17:01.345Z,2.61
2022-12-01T20:19:46.600Z,2.64
2022-12-01T20:22:31.427Z,2.69
2022-12-01T20:25:16.138Z,2.70
2022-12-01T20:28:00.828Z,2.73
2022-12-01T20:30:45.621Z,2.78
2022-12-01T20:33:30.248Z,2.79
2022-12-01T20:36:15.019Z,2.78
2022-12-01T20:38:59.757Z,2.80
2022-12-01T20:41:44.654Z,2.73
2022-12-01T20:44:29.425Z,2.71
2022-12-01T20:47:13.995Z,2.64
2022-12-01T20:49:58.939Z,2.54
2022-12-01T20:52:43.727Z,2.48
2022-12-01T20:55:28.567Z,2.46
2022-12-01T20:58:13.457Z,2.44
2022-12-01T21:00:58.504Z,2.43
2022-12-01T21:03:43.539Z,2.36
2022-12-01T21:06:28.352Z,2.35
2022-12-01T21:09:13.118Z,2.30
2022-12-01T21:11:57.868Z,2.24
2022-12-01T21:14:42.756Z,2.17
2022-12-01T21:17:27.403Z,2.19
2022-12-01T21:20:12.119Z,2.18
2022-12-01T21:22:57.075Z,2.12
2022-12-01T21:25:41.865Z,2.15
2022-12-01T21:28:26.612Z,2.19
2022-12-01T21:31:11.472Z,2.23
2022-12-01T21:33:56.704Z,2.30
2022-12-01T21:36:41.495Z,2.32
2022-12-01T21:39:26.407Z,2.28
2022-12-01T21:42:11.063Z,2.24
2022-12-01T21:44:55.948Z,2.22
2022-12-01T21:47:40.602Z,2.24
2022-12-01T21:50:25.503Z,2.30
2022-12-01T21:53:10.159Z,2.33
2022-12-01T21:55:54.949Z,2.29
2022-12-01T21:58:39.698Z,2.17
2022-12-01T22:01:24.443Z,2.09
2022-12-01T22:04:09.072Z,2.10
2022-12-01T22:06:53.816Z,2.08
2022-12-01T22:09:38.654Z,2.15
2022-12-01T22:12:23.436Z,2.18
2022-12-01T22:15:08.083Z,2.21
2022-12-01T22:17:52.848Z,2.22
2022-12-01T22:20:37.743Z,2.21
2022-12-01T22:23:22.603Z,2.23
2022-12-01T22:26:07.402Z,2.21
2022-12-01T22:28:52.238Z,2.17
2022-12-01T22:31:36.904Z,2.17
2022-12-01T22:34:21.638Z,2.20
2022-12-01T22:37:06.391Z,2.25
2022-12-01T22:39:51.296Z,2.27
2022-12-01T22:42:36.045Z,2.18
2022-12-01T22:45:20.890Z,2.21
2022-12-01T22:48:05.573Z,2.12
2022-12-01T22:50:52.060Z,2.09
2022-12-01T22:53:37.151Z,2.11
2022-12-01T22:56:21.954Z,2.09
2022-12-01T22:59:06.571Z,2.03
2022-12-01T23:01:51.474Z,2.04
2022-12-01T23:04:36.697Z,2.00
2022-12-01T23:07:21.482Z,1.86
2022-12-01T23:10:06.663Z,1.69
2022-12-01T23:12:51.899Z,1.62
2022-12-01T23:15:36.862Z,1.69
2022-12-01T23:18:21.687Z,1.71
2022-12-01T23:21:06.455Z,1.75
2022-12-01T23:23:51.058Z,1.71
2022-12-01T23:26:35.856Z,1.75
2022-12-01T23:29:20.566Z,1.67
2022-12-01T23:32:05.362Z,1.64
2022-12-01T23:34:52.725Z,1.58
2022-12-01T23:37:40.676Z,1.46
2022-12-01T23:40:25.390Z,1.44
2022-12-01T23:43:10.109Z,1.38
2022-12-01T23:45:55.072Z,1.30
2022-12-01T23:48:39.891Z,1.16
2022-12-01T23:51:24.574Z,1.18
2022-12-01T23:54:09.393Z,1.22
2022-12-01T23:56:54.170Z,1.33
2022-12-01T23:59:38.949Z,1.36
